Time;durP1;ratioP1;P1;durP2;ratioP2;P2;SDS_P1;SDS_P2;PMS_P1;PMS_P2;Temp;Humidity;BMP_temperature;BMP_pressure;BME280_temperature;BME280_humidity;BME280_pressure;Samples;Min_cycle;Max_cycle;Signal;HPM_P1;HPM_P2
2022/07/08 00:02:01;;;;;;;32.03;5.85;;;13.90;99.90;;;;;;4956062;28;20382;-73
2022/07/08 00:04:27;;;;;;;20.17;5.65;;;13.90;99.90;;;;;;4959927;28;20034;-73
2022/07/08 00:06:53;;;;;;;26.70;5.53;;;13.80;99.90;;;;;;4958658;28;20075;-73
2022/07/08 00:09:19;;;;;;;30.73;5.95;;;13.70;99.90;;;;;;4956605;28;20057;-73
2022/07/08 00:11:45;;;;;;;24.67;5.70;;;13.70;99.90;;;;;;4958403;28;20038;-73
2022/07/08 00:14:10;;;;;;;27.00;6.07;;;13.60;99.90;;;;;;4953572;28;20093;-72
2022/07/08 00:16:43;;;;;;;23.95;5.53;;;13.60;99.90;;;;;;4951062;28;20043;-73
2022/07/08 00:19:14;;;;;;;26.73;5.80;;;13.60;99.90;;;;;;4957257;28;20087;-72
2022/07/08 00:21:40;;;;;;;28.55;6.35;;;13.50;99.90;;;;;;4950582;28;20125;-72
2022/07/08 00:24:06;;;;;;;29.60;6.43;;;13.60;99.90;;;;;;4957562;28;20053;-71
2022/07/08 00:26:32;;;;;;;26.75;5.60;;;13.60;99.90;;;;;;4954266;28;20561;-72
2022/07/08 00:28:57;;;;;;;30.25;6.35;;;13.60;99.90;;;;;;4962504;28;20054;-73
2022/07/08 00:31:23;;;;;;;24.45;5.97;;;13.50;99.90;;;;;;4951519;28;20034;-71
2022/07/08 00:33:49;;;;;;;22.63;5.90;;;13.50;99.90;;;;;;4955464;28;20441;-73
2022/07/08 00:36:14;;;;;;;31.30;6.78;;;13.60;99.90;;;;;;4948929;28;20578;-71
2022/07/08 00:38:40;;;;;;;25.52;5.72;;;13.50;99.90;;;;;;4958911;28;20034;-73
2022/07/08 00:41:06;;;;;;;28.25;6.43;;;13.50;99.90;;;;;;4951254;28;20048;-72
2022/07/08 00:43:43;;;;;;;27.13;5.95;;;13.50;99.90;;;;;;4958847;28;20042;-74
2022/07/08 00:46:09;;;;;;;27.75;6.32;;;13.50;99.90;;;;;;4962229;28;20105;-73
2022/07/08 00:48:35;;;;;;;21.92;6.03;;;13.40;99.90;;;;;;4958540;28;20350;-73
2022/07/08 00:51:06;;;;;;;21.65;5.95;;;13.40;99.90;;;;;;4955369;28;20092;-72
2022/07/08 00:53:33;;;;;;;27.60;6.32;;;13.50;99.90;;;;;;4980320;28;20031;-73
2022/07/08 00:55:59;;;;;;;26.02;6.30;;;13.40;99.90;;;;;;4955091;28;20038;-72
2022/07/08 00:58:26;;;;;;;29.88;6.75;;;13.50;99.90;;;;;;4956055;28;20422;-73
2022/07/08 01:00:53;;;;;;;32.50;7.00;;;13.50;99.90;;;;;;4955256;28;20065;-72
2022/07/08 01:03:20;;;;;;;28.92;6.75;;;13.50;99.90;;;;;;4972423;28;20042;-73
2022/07/08 01:05:46;;;;;;;27.35;6.00;;;13.50;99.90;;;;;;4956155;28;20037;-72
2022/07/08 01:08:12;;;;;;;23.83;6.10;;;13.50;99.90;;;;;;4956208;28;20549;-71
2022/07/08 01:10:38;;;;;;;27.83;6.70;;;13.60;99.90;;;;;;4961480;28;20046;-73
2022/07/08 01:13:05;;;;;;;20.15;5.60;;;13.50;99.90;;;;;;4958473;28;20047;-73
2022/07/08 01:15:32;;;;;;;27.58;6.60;;;13.60;99.90;;;;;;4958600;28;20037;-74
2022/07/08 01:17:57;;;;;;;23.95;6.68;;;13.50;99.90;;;;;;4956296;28;20540;-72
2022/07/08 01:20:23;;;;;;;21.10;6.18;;;13.60;99.90;;;;;;4959577;28;20034;-73
2022/07/08 01:22:48;;;;;;;26.58;5.60;;;13.60;99.90;;;;;;4949526;28;20047;-73
2022/07/08 01:25:14;;;;;;;28.90;6.72;;;13.60;99.90;;;;;;4961187;28;20038;-70
2022/07/08 01:27:40;;;;;;;22.17;6.00;;;13.50;99.90;;;;;;4956639;28;20409;-71
2022/07/08 01:30:07;;;;;;;28.33;6.50;;;13.60;99.90;;;;;;4959204;28;20092;-73
2022/07/08 01:32:34;;;;;;;32.33;6.45;;;13.50;99.90;;;;;;4961068;28;20141;-71
2022/07/08 01:35:00;;;;;;;23.75;6.78;;;13.50;99.90;;;;;;4953846;28;20497;-72
2022/07/08 01:37:26;;;;;;;27.23;6.32;;;13.40;99.90;;;;;;4974195;28;20057;-74
2022/07/08 01:39:51;;;;;;;24.13;5.88;;;13.40;99.90;;;;;;4956710;28;20096;-71
2022/07/08 01:42:17;;;;;;;22.40;6.25;;;13.30;99.90;;;;;;4958236;28;20218;-73
2022/07/08 01:44:43;;;;;;;27.73;6.53;;;13.30;99.90;;;;;;4956691;28;20042;-73
2022/07/08 01:47:08;;;;;;;22.05;6.07;;;13.30;99.90;;;;;;4955925;28;20728;-72
2022/07/08 01:49:34;;;;;;;19.08;6.30;;;13.30;99.90;;;;;;4960291;28;20476;-71
2022/07/08 01:52:00;;;;;;;23.92;6.25;;;13.30;99.90;;;;;;4962461;28;20659;-72
2022/07/08 01:54:25;;;;;;;25.73;6.05;;;13.30;99.90;;;;;;4960688;28;20042;-71
2022/07/08 01:57:13;;;;;;;20.52;5.97;;;13.30;99.90;;;;;;4957203;28;20088;-70
2022/07/08 01:59:37;;;;;;;26.00;6.32;;;13.20;99.90;;;;;;4967362;28;20057;-70
2022/07/08 02:02:03;;;;;;;23.63;6.32;;;13.10;99.90;;;;;;4961383;28;20129;-71
2022/07/08 02:04:29;;;;;;;23.98;6.35;;;13.10;99.90;;;;;;4953559;28;20398;-71
2022/07/08 02:06:54;;;;;;;23.63;6.45;;;13.00;99.90;;;;;;4948125;28;20035;-71
2022/07/08 02:09:20;;;;;;;37.35;6.50;;;13.00;99.90;;;;;;4960822;28;20085;-71
2022/07/08 02:14:30;;;;;;;22.85;6.82;;;12.90;99.90;;;;;;4959058;28;20108;-71
2022/07/08 02:16:55;;;;;;;27.33;7.60;;;12.90;99.90;;;;;;4957491;28;20051;-71
2022/07/08 02:19:21;;;;;;;32.50;7.60;;;12.90;99.90;;;;;;4965052;28;20038;-71
2022/07/08 02:21:48;;;;;;;31.20;7.38;;;12.90;99.90;;;;;;4961986;28;20047;-70
2022/07/08 02:24:14;;;;;;;30.92;7.60;;;12.80;99.90;;;;;;4960672;28;20065;-71
2022/07/08 02:26:40;;;;;;;33.42;7.78;;;12.80;99.90;;;;;;4949764;28;20039;-71
2022/07/08 02:29:05;;;;;;;26.58;7.53;;;12.70;99.90;;;;;;4960134;28;20540;-71
2022/07/08 02:31:31;;;;;;;29.77;7.25;;;12.70;99.90;;;;;;4960842;28;20076;-72
2022/07/08 02:33:57;;;;;;;29.73;8.13;;;12.60;99.90;;;;;;4959798;28;20077;-72
2022/07/08 02:36:22;;;;;;;28.35;8.07;;;12.60;99.90;;;;;;4952586;28;20686;-72
2022/07/08 02:38:48;;;;;;;25.00;7.85;;;12.50;99.90;;;;;;4961726;28;20066;-72
2022/07/08 02:41:14;;;;;;;26.88;7.97;;;12.50;99.90;;;;;;4963177;28;20117;-74
2022/07/08 02:43:39;;;;;;;31.25;7.95;;;12.40;99.90;;;;;;4954224;28;20047;-72
2022/07/08 02:46:05;;;;;;;35.83;8.68;;;12.40;99.90;;;;;;4952270;28;20078;-72
2022/07/08 02:48:30;;;;;;;28.25;7.63;;;12.40;99.90;;;;;;4961065;28;20418;-72
2022/07/08 02:50:57;;;;;;;40.60;7.97;;;12.30;99.90;;;;;;4958338;28;20031;-70
2022/07/08 02:53:23;;;;;;;29.63;8.27;;;12.30;99.90;;;;;;4956358;28;20184;-71
2022/07/08 02:55:48;;;;;;;24.15;7.57;;;12.30;99.90;;;;;;4960703;28;20046;-70
2022/07/08 02:58:14;;;;;;;30.58;8.10;;;12.20;99.90;;;;;;4953888;28;20050;-71
2022/07/08 03:00:40;;;;;;;33.50;8.10;;;12.10;99.90;;;;;;4961516;28;20070;-70
2022/07/08 03:03:05;;;;;;;28.80;7.88;;;12.10;99.90;;;;;;4951558;28;20038;-71
2022/07/08 03:05:31;;;;;;;30.48;8.07;;;12.10;99.90;;;;;;4959059;28;20039;-72
2022/07/08 03:07:56;;;;;;;30.95;8.00;;;12.10;99.90;;;;;;4959798;28;20038;-71
2022/07/08 03:10:22;;;;;;;33.30;8.68;;;12.00;99.90;;;;;;4958636;28;20085;-73
2022/07/08 03:12:48;;;;;;;36.92;8.45;;;12.00;99.90;;;;;;4954186;28;20134;-71
2022/07/08 03:15:13;;;;;;;30.00;8.45;;;12.00;99.90;;;;;;4958282;28;20073;-72
2022/07/08 03:17:39;;;;;;;31.40;8.77;;;11.90;99.90;;;;;;4948449;28;20043;-72
2022/07/08 03:20:05;;;;;;;35.60;9.15;;;12.00;99.90;;;;;;4964072;28;20100;-70
2022/07/08 03:22:32;;;;;;;28.33;9.00;;;11.90;99.90;;;;;;4965733;28;20042;-71
2022/07/08 03:24:57;;;;;;;29.17;8.48;;;11.90;99.90;;;;;;4956959;28;20054;-71
2022/07/08 03:27:24;;;;;;;41.47;9.20;;;12.00;99.90;;;;;;4960464;28;20129;-70
2022/07/08 03:29:49;;;;;;;35.50;9.23;;;12.00;99.90;;;;;;4953117;28;20177;-70
2022/07/08 03:32:15;;;;;;;28.20;8.82;;;11.90;99.90;;;;;;4950475;28;20045;-70
2022/07/08 03:34:40;;;;;;;49.75;9.65;;;11.90;99.90;;;;;;4953828;28;20046;-71
2022/07/08 03:37:06;;;;;;;31.48;9.35;;;12.00;99.90;;;;;;4957753;28;20101;-70
2022/07/08 03:39:32;;;;;;;32.92;9.20;;;11.90;99.90;;;;;;4957051;28;20038;-70
2022/07/08 03:41:57;;;;;;;36.72;10.07;;;11.90;99.90;;;;;;4958308;28;20556;-70
2022/07/08 03:44:23;;;;;;;36.13;10.63;;;11.90;99.90;;;;;;4961536;28;20054;-70
2022/07/08 03:46:48;;;;;;;39.22;10.45;;;11.90;99.90;;;;;;4935304;28;20442;-70
2022/07/08 03:49:14;;;;;;;31.00;9.48;;;11.90;99.90;;;;;;4955768;28;20039;-70
2022/07/08 03:51:40;;;;;;;34.90;10.38;;;11.80;99.90;;;;;;4956279;28;20049;-71
2022/07/08 03:54:05;;;;;;;32.70;9.60;;;11.80;99.90;;;;;;4955944;28;20039;-72
2022/07/08 03:56:31;;;;;;;38.03;11.35;;;11.90;99.90;;;;;;4959166;28;20034;-72
2022/07/08 03:58:56;;;;;;;41.28;9.98;;;11.80;99.90;;;;;;4954742;28;20462;-71
2022/07/08 04:01:22;;;;;;;35.67;10.40;;;11.70;99.90;;;;;;4953860;28;20042;-71
2022/07/08 04:03:48;;;;;;;37.55;10.25;;;11.70;99.90;;;;;;4950008;28;20059;-71
2022/07/08 04:06:13;;;;;;;34.80;10.27;;;11.70;99.90;;;;;;4953124;28;20070;-71
2022/07/08 04:08:39;;;;;;;40.17;10.30;;;11.70;99.90;;;;;;4953243;28;20070;-70
2022/07/08 04:11:05;;;;;;;30.63;9.88;;;11.70;99.90;;;;;;4959579;28;20047;-70
2022/07/08 04:13:30;;;;;;;32.13;9.70;;;11.80;99.90;;;;;;4947541;28;20082;-71
2022/07/08 04:15:56;;;;;;;41.22;10.40;;;11.90;99.90;;;;;;4954546;28;20125;-71
2022/07/08 04:18:22;;;;;;;31.73;10.45;;;11.90;99.90;;;;;;4957191;28;20118;-71
2022/07/08 04:20:48;;;;;;;33.17;9.65;;;11.90;99.90;;;;;;4949343;28;20067;-70
2022/07/08 04:23:13;;;;;;;51.00;11.52;;;12.00;99.90;;;;;;4960960;28;20074;-72
2022/07/08 04:25:39;;;;;;;31.80;9.98;;;12.10;99.90;;;;;;4955295;28;20521;-71
2022/07/08 04:28:05;;;;;;;31.60;10.05;;;12.20;99.90;;;;;;4948231;28;20045;-71
2022/07/08 04:30:30;;;;;;;33.92;9.23;;;12.30;99.90;;;;;;4957224;28;20504;-72
2022/07/08 04:32:56;;;;;;;27.05;10.57;;;12.30;99.90;;;;;;4955009;28;20058;-72
2022/07/08 04:35:22;;;;;;;40.83;9.50;;;12.50;99.90;;;;;;4955772;28;20038;-72
2022/07/08 04:37:48;;;;;;;30.80;9.07;;;12.60;99.90;;;;;;4955655;28;20074;-71
2022/07/08 04:40:15;;;;;;;38.05;9.55;;;12.70;99.90;;;;;;4955103;28;20439;-71
2022/07/08 04:42:41;;;;;;;31.90;9.65;;;12.80;99.90;;;;;;4956742;28;20050;-72
2022/07/08 04:45:07;;;;;;;42.47;9.48;;;12.80;99.90;;;;;;4959800;28;20086;-72
2022/07/08 04:47:33;;;;;;;33.65;9.50;;;12.80;99.90;;;;;;4959134;28;20042;-71
2022/07/08 04:49:59;;;;;;;32.80;9.32;;;12.80;99.90;;;;;;4950847;28;20394;-71
2022/07/08 04:52:25;;;;;;;34.85;9.90;;;12.80;99.90;;;;;;4955630;28;20031;-73
2022/07/08 04:54:50;;;;;;;34.03;9.27;;;12.90;99.90;;;;;;4957091;28;20034;-71
2022/07/08 04:57:16;;;;;;;29.38;9.63;;;12.90;99.90;;;;;;4958788;28;20043;-71
2022/07/08 04:59:42;;;;;;;33.95;9.40;;;12.90;99.90;;;;;;4952997;28;20038;-72
2022/07/08 05:02:07;;;;;;;36.58;9.18;;;13.10;99.90;;;;;;4961854;28;20046;-71
2022/07/08 05:04:33;;;;;;;34.20;9.57;;;13.20;99.90;;;;;;4978883;28;20046;-70
2022/07/08 05:06:59;;;;;;;31.75;9.07;;;13.30;99.90;;;;;;4965059;28;20050;-71
2022/07/08 05:09:24;;;;;;;35.65;9.82;;;13.50;99.90;;;;;;4978500;28;20046;-72
2022/07/08 05:11:50;;;;;;;35.33;9.45;;;13.60;99.90;;;;;;4968164;28;20512;-72
2022/07/08 05:14:16;;;;;;;32.17;8.70;;;13.90;99.90;;;;;;4969731;28;20039;-71
2022/07/08 05:16:43;;;;;;;35.08;9.32;;;14.00;99.90;;;;;;4958710;28;20540;-72
2022/07/08 05:19:10;;;;;;;29.15;8.93;;;14.20;99.90;;;;;;4958783;28;20035;-71
2022/07/08 05:21:36;;;;;;;28.40;9.10;;;14.40;99.90;;;;;;4958487;28;20051;-72
2022/07/08 05:24:07;;;;;;;35.83;9.60;;;14.30;99.90;;;;;;4958608;28;20090;-71
2022/07/08 05:26:33;;;;;;;38.33;10.10;;;14.40;99.90;;;;;;4962320;28;20039;-70
2022/07/08 05:28:59;;;;;;;45.88;9.38;;;14.30;99.90;;;;;;4984447;28;20035;-71
2022/07/08 05:31:25;;;;;;;38.60;9.55;;;14.40;99.90;;;;;;4961832;28;20402;-72
2022/07/08 05:33:50;;;;;;;33.22;10.10;;;14.50;99.90;;;;;;4962379;28;20047;-74
2022/07/08 05:36:16;;;;;;;33.88;9.65;;;14.40;99.90;;;;;;4963973;28;20054;-73
2022/07/08 05:38:42;;;;;;;39.08;8.85;;;14.50;99.90;;;;;;4955908;28;20046;-71
2022/07/08 05:41:08;;;;;;;34.13;8.55;;;14.50;99.90;;;;;;4961353;28;20054;-74
2022/07/08 05:43:33;;;;;;;39.60;10.05;;;14.50;99.90;;;;;;4969078;28;20043;-72
2022/07/08 05:45:59;;;;;;;35.75;8.05;;;14.60;99.90;;;;;;4965404;28;20057;-72
2022/07/08 05:48:24;;;;;;;33.33;9.30;;;14.60;99.90;;;;;;4954084;28;20026;-70
2022/07/08 05:50:50;;;;;;;42.85;8.77;;;14.60;99.90;;;;;;4953670;28;20745;-72
2022/07/08 05:53:16;;;;;;;37.15;8.30;;;14.60;99.90;;;;;;4957279;28;20067;-71
2022/07/08 05:55:44;;;;;;;32.35;8.10;;;14.70;99.90;;;;;;4956431;28;20121;-71
2022/07/08 05:58:09;;;;;;;34.85;8.60;;;14.60;99.90;;;;;;4962579;28;20274;-72
2022/07/08 06:00:35;;;;;;;35.67;7.93;;;14.80;99.90;;;;;;4959628;28;20493;-71
2022/07/08 06:03:03;;;;;;;29.35;7.97;;;14.80;99.90;;;;;;4960031;28;20038;-72
2022/07/08 06:05:29;;;;;;;29.42;7.75;;;14.90;99.90;;;;;;4960067;28;20042;-72
2022/07/08 06:07:54;;;;;;;32.17;7.82;;;14.80;99.90;;;;;;4963668;28;20042;-71
2022/07/08 06:10:20;;;;;;;33.85;7.20;;;15.10;99.90;;;;;;4958332;28;20462;-70
2022/07/08 06:12:46;;;;;;;33.92;7.18;;;15.10;99.90;;;;;;4958130;28;20031;-70
2022/07/08 06:15:14;;;;;;;31.25;7.20;;;15.40;99.90;;;;;;4958399;28;20478;-73
2022/07/08 06:17:41;;;;;;;27.05;7.03;;;15.60;99.90;;;;;;4957030;28;20186;-71
2022/07/08 06:20:07;;;;;;;22.10;6.90;;;15.80;99.90;;;;;;4969327;28;20038;-74
2022/07/08 06:22:33;;;;;;;28.33;6.63;;;15.90;99.90;;;;;;4966706;28;20098;-72
2022/07/08 06:24:59;;;;;;;30.30;6.35;;;16.10;99.90;;;;;;4958549;28;20493;-73
2022/07/08 06:27:25;;;;;;;24.67;6.38;;;16.20;99.90;;;;;;4938230;28;20035;-71
2022/07/08 06:29:51;;;;;;;34.03;6.05;;;16.20;99.90;;;;;;4955770;28;20115;-73
2022/07/08 06:32:17;;;;;;;23.98;5.70;;;16.30;99.90;;;;;;4955958;28;20051;-74
2022/07/08 06:34:46;;;;;;;35.70;6.25;;;16.30;99.90;;;;;;4958859;28;20046;-71
2022/07/08 06:37:11;;;;;;;31.15;6.25;;;16.30;99.90;;;;;;4955382;28;20039;-73
2022/07/08 06:39:37;;;;;;;36.17;6.55;;;16.30;99.90;;;;;;4956966;28;20093;-72
2022/07/08 06:42:03;;;;;;;46.90;6.43;;;16.30;99.90;;;;;;4954409;28;21451;-71
2022/07/08 06:44:28;;;;;;;26.00;6.30;;;16.20;99.90;;;;;;4951021;28;20471;-73
2022/07/08 06:46:54;;;;;;;35.72;6.05;;;16.20;99.90;;;;;;4949124;28;20039;-72
2022/07/08 06:49:20;;;;;;;36.92;5.82;;;16.20;99.90;;;;;;4959079;28;20524;-73
2022/07/08 06:51:45;;;;;;;29.25;7.30;;;16.30;99.90;;;;;;4975166;28;20050;-74
2022/07/08 06:56:55;;;;;;;29.95;6.60;;;16.40;99.90;;;;;;4959148;28;20093;-73
2022/07/08 06:59:20;;;;;;;25.15;5.90;;;16.40;99.90;;;;;;4954699;28;20077;-72
2022/07/08 07:01:46;;;;;;;27.48;6.85;;;16.50;99.90;;;;;;4957788;28;20405;-73
2022/07/08 07:04:12;;;;;;;33.13;6.90;;;16.60;99.90;;;;;;4953585;28;20035;-72
2022/07/08 07:06:38;;;;;;;29.75;6.95;;;16.60;99.90;;;;;;4954671;28;20054;-72
2022/07/08 07:09:03;;;;;;;23.90;6.40;;;16.50;99.90;;;;;;4957430;28;20057;-72
2022/07/08 07:11:29;;;;;;;29.48;6.75;;;16.60;99.90;;;;;;4971454;28;20034;-71
2022/07/08 07:13:55;;;;;;;33.97;6.57;;;16.60;99.90;;;;;;4966072;28;20367;-71
2022/07/08 07:16:20;;;;;;;41.20;6.63;;;16.60;99.90;;;;;;4958733;28;20048;-71
2022/07/08 07:18:46;;;;;;;23.35;6.00;;;16.70;99.90;;;;;;4954169;28;20125;-70
2022/07/08 07:21:11;;;;;;;38.97;6.70;;;16.90;99.90;;;;;;4940917;28;20069;-72
2022/07/08 07:23:38;;;;;;;24.17;5.65;;;17.00;99.90;;;;;;4956621;28;20097;-71
2022/07/08 07:26:04;;;;;;;22.98;5.60;;;17.00;99.90;;;;;;4972167;28;20045;-72
2022/07/08 07:28:29;;;;;;;28.67;5.90;;;17.10;99.90;;;;;;4967282;28;20034;-72
2022/07/08 07:30:55;;;;;;;27.65;6.22;;;17.00;99.90;;;;;;4945718;28;20121;-73
2022/07/08 07:33:20;;;;;;;31.25;5.72;;;17.10;99.90;;;;;;4943828;28;20504;-72
2022/07/08 07:35:46;;;;;;;30.27;6.20;;;17.20;99.90;;;;;;4955436;28;20090;-71
2022/07/08 07:38:11;;;;;;;37.47;6.53;;;17.50;99.90;;;;;;4945229;28;20038;-72
2022/07/08 07:40:37;;;;;;;28.20;6.15;;;17.50;99.90;;;;;;4949294;28;20110;-72
2022/07/08 07:43:03;;;;;;;29.83;6.45;;;17.50;99.90;;;;;;4955199;28;20142;-74
2022/07/08 07:45:28;;;;;;;33.35;7.10;;;17.50;99.90;;;;;;4968770;28;20043;-71
2022/07/08 07:47:54;;;;;;;19.42;6.00;;;17.50;99.90;;;;;;4947094;28;20042;-72
2022/07/08 07:50:20;;;;;;;35.08;6.82;;;17.60;99.90;;;;;;4952045;28;20042;-72
2022/07/08 07:52:46;;;;;;;30.90;7.30;;;17.70;99.90;;;;;;4939752;28;20046;-73
2022/07/08 07:55:11;;;;;;;24.95;6.88;;;17.60;99.90;;;;;;4971418;28;20051;-74
2022/07/08 07:57:37;;;;;;;34.30;6.70;;;17.60;99.90;;;;;;4953843;28;20078;-73
2022/07/08 08:00:09;;;;;;;27.38;6.18;;;17.60;99.90;;;;;;4952450;28;20034;-74
2022/07/08 08:02:35;;;;;;;28.45;6.65;;;17.60;99.90;;;;;;4955345;28;20047;-74
2022/07/08 08:05:01;;;;;;;27.67;6.28;;;17.70;99.90;;;;;;4955035;28;20046;-74
2022/07/08 08:07:26;;;;;;;23.33;6.57;;;17.80;99.90;;;;;;4955245;28;20108;-74
2022/07/08 08:09:52;;;;;;;31.00;6.50;;;17.80;99.90;;;;;;4948275;28;20038;-74
2022/07/08 08:12:18;;;;;;;35.22;6.75;;;17.80;99.90;;;;;;4952047;28;20668;-74
2022/07/08 08:14:43;;;;;;;24.83;5.80;;;17.70;99.90;;;;;;4963301;28;20412;-71
2022/07/08 08:17:09;;;;;;;23.27;6.05;;;17.60;99.90;;;;;;4954634;28;20042;-72
2022/07/08 08:19:34;;;;;;;27.02;6.43;;;17.50;99.90;;;;;;4954550;28;20552;-70
2022/07/08 08:22:00;;;;;;;33.10;5.32;;;17.50;99.90;;;;;;4960861;28;20049;-72
2022/07/08 08:24:25;;;;;;;24.88;7.25;;;17.40;99.90;;;;;;4951391;28;20042;-70
2022/07/08 08:26:51;;;;;;;30.48;6.10;;;17.50;99.90;;;;;;4962417;28;20650;-76
2022/07/08 08:29:17;;;;;;;32.28;5.65;;;17.60;99.90;;;;;;4962200;28;20483;-72
2022/07/08 08:31:42;;;;;;;23.92;5.30;;;17.70;99.90;;;;;;4957950;28;20046;-74
2022/07/08 08:34:08;;;;;;;27.33;7.55;;;17.70;99.90;;;;;;4947397;28;20038;-77
2022/07/08 08:36:34;;;;;;;23.15;6.22;;;17.80;99.90;;;;;;4954428;28;20149;-76
2022/07/08 08:39:00;;;;;;;28.67;5.95;;;18.00;99.90;;;;;;4953549;28;20173;-74
2022/07/08 08:41:26;;;;;;;27.63;6.20;;;17.90;99.90;;;;;;4952463;28;20122;-74
2022/07/08 08:43:53;;;;;;;27.75;6.38;;;17.90;99.90;;;;;;4969769;28;20046;-72
2022/07/08 08:46:24;;;;;;;32.85;6.00;;;18.00;99.90;;;;;;4938733;28;20441;-72
2022/07/08 08:48:56;;;;;;;25.58;5.57;;;18.10;99.90;;;;;;4954398;28;20050;-76
2022/07/08 08:51:25;;;;;;;23.40;5.38;;;18.20;99.90;;;;;;4939994;29;20106;-70
2022/07/08 08:53:53;;;;;;;19.50;6.82;;;18.30;99.90;;;;;;4938232;28;20097;-70
2022/07/08 08:56:19;;;;;;;26.85;5.97;;;18.40;99.90;;;;;;4935916;29;20678;-71
2022/07/08 08:58:46;;;;;;;22.73;5.13;;;18.30;99.90;;;;;;4951543;29;20047;-73
2022/07/08 09:01:13;;;;;;;18.67;5.30;;;18.40;99.90;;;;;;4946032;28;20568;-74
2022/07/08 09:03:39;;;;;;;33.13;5.63;;;18.40;99.90;;;;;;4968924;28;20042;-74
2022/07/08 09:06:06;;;;;;;25.75;5.72;;;18.40;99.90;;;;;;4969188;28;20061;-71
2022/07/08 09:08:32;;;;;;;26.60;6.93;;;18.40;99.90;;;;;;4954846;28;20030;-70
2022/07/08 09:10:58;;;;;;;23.70;5.38;;;18.50;99.90;;;;;;4954794;28;20039;-74
2022/07/08 09:13:25;;;;;;;24.60;5.90;;;18.70;99.90;;;;;;4961505;28;20034;-70
2022/07/08 09:15:57;;;;;;;22.85;5.22;;;18.80;99.90;;;;;;4958716;28;20047;-73
2022/07/08 09:18:30;;;;;;;25.98;5.82;;;18.80;99.90;;;;;;4974363;28;20041;-70
2022/07/08 09:20:57;;;;;;;25.33;6.22;;;18.90;99.90;;;;;;4966675;28;20043;-71
2022/07/08 09:23:26;;;;;;;23.85;5.28;;;18.90;99.90;;;;;;4955880;28;20181;-70
2022/07/08 09:26:07;;;;;;;28.33;6.30;;;18.80;99.90;;;;;;4955117;28;20428;-76
2022/07/08 09:28:41;;;;;;;30.23;5.22;;;18.90;99.90;;;;;;4954727;28;20486;-74
2022/07/08 09:31:14;;;;;;;20.70;5.60;;;19.00;99.90;;;;;;4955487;28;20042;-74
2022/07/08 09:33:41;;;;;;;21.20;4.88;;;18.90;99.90;;;;;;4955113;28;20154;-74
2022/07/08 09:36:08;;;;;;;25.80;6.07;;;18.80;99.90;;;;;;4938234;28;20031;-73
2022/07/08 09:38:37;;;;;;;23.10;6.28;;;18.90;99.90;;;;;;4953698;28;20065;-75
2022/07/08 09:41:04;;;;;;;22.92;5.07;;;18.90;99.90;;;;;;4954557;28;20051;-71
2022/07/08 09:43:30;;;;;;;22.63;5.93;;;19.00;99.90;;;;;;4953608;28;20050;-72
2022/07/08 09:46:03;;;;;;;27.35;5.78;;;19.00;99.90;;;;;;4955408;28;20059;-73
2022/07/08 09:48:29;;;;;;;27.88;5.45;;;19.00;99.90;;;;;;4957641;28;20414;-69
2022/07/08 09:50:55;;;;;;;19.38;5.32;;;19.10;99.90;;;;;;4955931;28;20027;-70
2022/07/08 09:53:22;;;;;;;28.00;4.82;;;19.10;99.90;;;;;;4958313;28;20043;-71
2022/07/08 09:55:53;;;;;;;21.08;5.50;;;19.20;99.90;;;;;;4957948;28;20074;-72
2022/07/08 09:58:24;;;;;;;22.83;5.57;;;19.20;99.90;;;;;;4958146;28;20129;-71
2022/07/08 10:00:51;;;;;;;31.23;5.43;;;19.20;99.90;;;;;;4954668;28;20042;-75
2022/07/08 10:03:18;;;;;;;24.63;5.82;;;19.30;99.90;;;;;;4958023;28;20043;-71
2022/07/08 10:05:45;;;;;;;19.88;5.65;;;19.40;99.90;;;;;;4957907;28;20831;-70
2022/07/08 10:08:11;;;;;;;30.13;6.90;;;19.40;99.90;;;;;;4958164;28;20038;-72
2022/07/08 10:10:39;;;;;;;31.02;7.28;;;19.40;99.90;;;;;;4957752;28;20445;-72
2022/07/08 10:13:05;;;;;;;23.88;6.70;;;19.40;99.90;;;;;;4948274;29;20566;-75
2022/07/08 10:15:33;;;;;;;24.45;7.22;;;19.40;99.90;;;;;;4956570;28;20039;-73
2022/07/08 10:18:33;;;;;;;39.03;7.35;;;19.50;99.90;;;;;;4942820;29;20098;-70
2022/07/08 10:21:01;;;;;;;22.77;6.50;;;19.60;99.90;;;;;;4976528;28;20120;-72
2022/07/08 10:23:42;;;;;;;22.75;6.15;;;19.40;99.90;;;;;;4957226;28;20043;-71
2022/07/08 10:26:09;;;;;;;23.27;6.40;;;19.50;99.90;;;;;;4952862;28;20053;-67
2022/07/08 10:28:39;;;;;;;31.83;7.63;;;19.50;99.90;;;;;;4943335;28;20039;-70
2022/07/08 10:31:21;;;;;;;25.05;6.90;;;19.50;99.90;;;;;;4946402;28;20124;-69
2022/07/08 10:33:50;;;;;;;19.35;6.60;;;19.50;99.90;;;;;;4938309;29;20379;-69
2022/07/08 10:36:20;;;;;;;17.25;6.15;;;19.50;99.90;;;;;;4958693;28;20057;-72
2022/07/08 10:38:47;;;;;;;26.23;6.80;;;19.60;99.90;;;;;;4952251;28;20050;-69
2022/07/08 10:41:19;;;;;;;22.40;7.25;;;19.50;99.90;;;;;;4961162;28;20046;-67
2022/07/08 10:43:53;;;;;;;27.33;7.57;;;19.50;99.90;;;;;;4965152;28;20039;-70
2022/07/08 10:46:20;;;;;;;31.48;7.50;;;19.50;99.90;;;;;;4957676;28;20414;-72
2022/07/08 10:48:50;;;;;;;29.63;7.53;;;19.50;99.90;;;;;;4958862;28;20049;-73
2022/07/08 10:51:19;;;;;;;22.00;7.40;;;19.50;99.90;;;;;;4960146;28;20370;-72
2022/07/08 10:53:51;;;;;;;24.65;7.93;;;19.40;99.90;;;;;;4970734;28;20061;-69
2022/07/08 10:56:48;;;;;;;26.48;7.60;;;19.50;99.90;;;;;;4970336;28;20047;-72
2022/07/08 10:59:19;;;;;;;22.45;8.20;;;19.50;99.90;;;;;;4971409;28;20039;-72
2022/07/08 11:02:07;;;;;;;23.15;8.50;;;19.50;99.90;;;;;;4967319;28;20092;-71
2022/07/08 11:04:33;;;;;;;33.20;7.70;;;19.50;99.90;;;;;;4957005;28;20126;-70
2022/07/08 11:07:17;;;;;;;26.63;7.60;;;19.70;99.90;;;;;;4956428;28;20126;-68
2022/07/08 11:09:45;;;;;;;22.98;7.65;;;20.00;99.90;;;;;;4956986;28;20438;-72
2022/07/08 11:12:11;;;;;;;25.02;7.03;;;20.10;99.90;;;;;;4955497;28;20489;-70
2022/07/08 11:14:41;;;;;;;23.27;7.53;;;20.20;99.90;;;;;;4956522;28;20050;-70
2022/07/08 11:17:22;;;;;;;28.10;7.15;;;20.20;99.90;;;;;;4956559;28;20133;-70
2022/07/08 11:19:51;;;;;;;27.25;6.90;;;20.20;99.90;;;;;;4937593;28;20075;-70
2022/07/08 11:22:16;;;;;;;27.00;7.93;;;20.30;99.90;;;;;;4956785;28;20042;-68
2022/07/08 11:24:44;;;;;;;25.42;7.30;;;20.30;99.90;;;;;;4954500;28;20073;-70
2022/07/08 11:27:09;;;;;;;18.75;7.53;;;20.30;99.90;;;;;;4956199;28;20092;-70
2022/07/08 11:29:36;;;;;;;27.70;8.10;;;20.30;99.90;;;;;;4955516;28;20636;-69
2022/07/08 11:32:04;;;;;;;24.60;8.10;;;20.30;99.90;;;;;;4956714;28;20065;-73
2022/07/08 11:34:31;;;;;;;23.42;8.10;;;20.30;99.90;;;;;;4956585;28;20428;-70
2022/07/08 11:36:58;;;;;;;20.23;7.78;;;20.30;99.90;;;;;;4956668;28;20042;-68
2022/07/08 11:39:24;;;;;;;23.48;8.18;;;20.40;99.90;;;;;;4956066;28;20069;-69
2022/07/08 11:41:50;;;;;;;21.13;6.97;;;20.60;99.90;;;;;;4956136;28;20042;-70
2022/07/08 11:44:20;;;;;;;27.20;9.30;;;20.70;99.90;;;;;;4955013;28;20053;-69
2022/07/08 11:46:51;;;;;;;28.08;8.48;;;20.50;99.90;;;;;;4944054;29;20396;-69
2022/07/08 11:49:18;;;;;;;24.40;8.82;;;20.50;99.90;;;;;;4952971;28;20125;-68
2022/07/08 11:52:10;;;;;;;31.42;8.77;;;20.60;99.90;;;;;;4955226;28;20126;-71
2022/07/08 11:54:36;;;;;;;25.48;9.25;;;20.60;99.90;;;;;;4953523;28;20094;-68
2022/07/08 11:57:04;;;;;;;27.67;8.38;;;20.40;99.90;;;;;;4954953;28;20050;-67
2022/07/08 11:59:32;;;;;;;35.05;10.05;;;20.30;99.90;;;;;;4963675;28;20109;-70
2022/07/08 12:02:00;;;;;;;26.05;8.10;;;20.20;99.90;;;;;;4966003;28;20313;-69
2022/07/08 12:04:26;;;;;;;27.08;8.40;;;20.20;99.90;;;;;;4955785;28;20101;-69
2022/07/08 12:06:53;;;;;;;28.83;8.63;;;20.10;99.90;;;;;;4982211;28;20066;-69
2022/07/08 12:09:22;;;;;;;28.67;8.48;;;20.10;99.90;;;;;;4955730;28;20405;-71
2022/07/08 12:11:49;;;;;;;16.90;7.20;;;20.00;99.90;;;;;;4954768;28;20089;-70
2022/07/08 12:14:16;;;;;;;24.50;7.93;;;20.00;99.90;;;;;;4956169;28;20046;-68
2022/07/08 12:16:43;;;;;;;25.25;8.45;;;20.10;99.90;;;;;;4953743;28;20410;-68
2022/07/08 12:19:31;;;;;;;26.75;8.60;;;20.40;99.90;;;;;;4955472;28;20078;-69
2022/07/08 12:22:08;;;;;;;24.00;8.27;;;20.70;99.90;;;;;;4952049;28;20304;-70
2022/07/08 12:24:38;;;;;;;26.38;8.02;;;21.00;99.90;;;;;;4936350;29;20047;-67
2022/07/08 12:27:08;;;;;;;22.55;8.50;;;21.00;99.90;;;;;;4936023;29;20086;-69
2022/07/08 12:29:38;;;;;;;20.58;7.93;;;21.10;99.90;;;;;;4935908;29;20090;-67
2022/07/08 12:32:05;;;;;;;25.77;9.20;;;21.10;99.90;;;;;;4953534;28;20049;-67
2022/07/08 12:34:31;;;;;;;22.60;8.25;;;21.00;99.90;;;;;;4951118;28;20073;-70
2022/07/08 12:37:12;;;;;;;22.77;8.65;;;21.10;99.90;;;;;;4939565;28;20049;-72
2022/07/08 12:39:38;;;;;;;20.90;9.13;;;21.20;99.90;;;;;;4955113;28;20047;-70
2022/07/08 12:42:07;;;;;;;29.60;10.15;;;21.10;99.90;;;;;;4955627;28;20520;-67